sensor_id;sensor_type;location;lat;lon;timestamp;temperature;humidity
60313;DHT22;46158;52.850;6.970;2024-01-25T00:00:53;16.10;64.40
60313;DHT22;46158;52.850;6.970;2024-01-25T00:03:18;16.10;64.40
60313;DHT22;46158;52.850;6.970;2024-01-25T00:05:44;16.10;64.30
60313;DHT22;46158;52.850;6.970;2024-01-25T00:08:09;16.10;64.40
60313;DHT22;46158;52.850;6.970;2024-01-25T00:10:35;16.10;64.50
60313;DHT22;46158;52.850;6.970;2024-01-25T00:13:01;16.00;64.40
60313;DHT22;46158;52.850;6.970;2024-01-25T00:15:27;16.10;64.50
60313;DHT22;46158;52.850;6.970;2024-01-25T00:17:52;16.00;64.40
60313;DHT22;46158;52.850;6.970;2024-01-25T00:20:18;16.00;64.40
60313;DHT22;46158;52.850;6.970;2024-01-25T00:22:43;16.00;64.40
60313;DHT22;46158;52.850;6.970;2024-01-25T00:25:09;16.00;64.40
60313;DHT22;46158;52.850;6.970;2024-01-25T00:27:35;16.00;65.10
60313;DHT22;46158;52.850;6.970;2024-01-25T00:30:00;16.00;64.30
60313;DHT22;46158;52.850;6.970;2024-01-25T00:32:26;16.00;64.20
60313;DHT22;46158;52.850;6.970;2024-01-25T00:34:52;16.00;64.10
60313;DHT22;46158;52.850;6.970;2024-01-25T00:37:18;16.10;64.10
60313;DHT22;46158;52.850;6.970;2024-01-25T00:39:44;16.10;64.00
60313;DHT22;46158;52.850;6.970;2024-01-25T00:42:12;16.00;63.90
60313;DHT22;46158;52.850;6.970;2024-01-25T00:44:38;16.00;63.80
60313;DHT22;46158;52.850;6.970;2024-01-25T00:47:04;16.00;63.70
60313;DHT22;46158;52.850;6.970;2024-01-25T00:49:30;16.10;63.80
60313;DHT22;46158;52.850;6.970;2024-01-25T00:51:59;16.00;63.70
60313;DHT22;46158;52.850;6.970;2024-01-25T00:54:25;16.00;63.70
60313;DHT22;46158;52.850;6.970;2024-01-25T00:56:51;16.00;63.80
60313;DHT22;46158;52.850;6.970;2024-01-25T00:59:19;16.00;63.80
60313;DHT22;46158;52.850;6.970;2024-01-25T01:01:46;16.00;63.80
60313;DHT22;46158;52.850;6.970;2024-01-25T01:04:12;16.00;63.70
60313;DHT22;46158;52.850;6.970;2024-01-25T01:06:38;16.00;63.80
60313;DHT22;46158;52.850;6.970;2024-01-25T01:09:04;16.00;63.70
60313;DHT22;46158;52.850;6.970;2024-01-25T01:11:30;16.00;63.60
60313;DHT22;46158;52.850;6.970;2024-01-25T01:13:55;16.00;63.60
60313;DHT22;46158;52.850;6.970;2024-01-25T01:16:21;16.00;63.60
60313;DHT22;46158;52.850;6.970;2024-01-25T01:18:47;16.00;63.50
60313;DHT22;46158;52.850;6.970;2024-01-25T01:21:12;16.00;63.50
60313;DHT22;46158;52.850;6.970;2024-01-25T01:23:38;16.00;63.40
60313;DHT22;46158;52.850;6.970;2024-01-25T01:26:04;16.00;63.30
60313;DHT22;46158;52.850;6.970;2024-01-25T01:28:30;16.00;63.30
60313;DHT22;46158;52.850;6.970;2024-01-25T01:30:55;16.00;63.20
60313;DHT22;46158;52.850;6.970;2024-01-25T01:33:21;16.00;63.30
60313;DHT22;46158;52.850;6.970;2024-01-25T01:35:46;16.00;63.30
60313;DHT22;46158;52.850;6.970;2024-01-25T01:38:12;16.00;63.30
60313;DHT22;46158;52.850;6.970;2024-01-25T01:40:38;16.00;63.40
60313;DHT22;46158;52.850;6.970;2024-01-25T01:43:03;16.00;63.40
60313;DHT22;46158;52.850;6.970;2024-01-25T01:45:29;16.00;63.50
60313;DHT22;46158;52.850;6.970;2024-01-25T01:47:56;15.90;63.50
60313;DHT22;46158;52.850;6.970;2024-01-25T01:50:22;16.00;63.60
60313;DHT22;46158;52.850;6.970;2024-01-25T01:52:50;15.90;63.60
60313;DHT22;46158;52.850;6.970;2024-01-25T01:55:17;16.00;63.60
60313;DHT22;46158;52.850;6.970;2024-01-25T01:57:43;16.00;63.60
60313;DHT22;46158;52.850;6.970;2024-01-25T02:00:10;16.00;63.60
60313;DHT22;46158;52.850;6.970;2024-01-25T02:02:36;16.00;63.60
60313;DHT22;46158;52.850;6.970;2024-01-25T02:05:02;16.00;63.60
60313;DHT22;46158;52.850;6.970;2024-01-25T02:07:28;16.00;63.50
60313;DHT22;46158;52.850;6.970;2024-01-25T02:09:55;16.00;64.20
60313;DHT22;46158;52.850;6.970;2024-01-25T02:12:21;16.00;63.60
60313;DHT22;46158;52.850;6.970;2024-01-25T02:14:47;16.00;63.50
60313;DHT22;46158;52.850;6.970;2024-01-25T02:17:12;16.00;63.50
60313;DHT22;46158;52.850;6.970;2024-01-25T02:19:38;16.00;63.50
60313;DHT22;46158;52.850;6.970;2024-01-25T02:22:05;16.00;63.40
60313;DHT22;46158;52.850;6.970;2024-01-25T02:24:31;16.00;63.40
60313;DHT22;46158;52.850;6.970;2024-01-25T02:26:56;16.00;63.40
60313;DHT22;46158;52.850;6.970;2024-01-25T02:29:22;16.00;63.50
60313;DHT22;46158;52.850;6.970;2024-01-25T02:31:48;16.00;63.60
60313;DHT22;46158;52.850;6.970;2024-01-25T02:34:13;16.00;63.60
60313;DHT22;46158;52.850;6.970;2024-01-25T02:36:39;16.00;63.60
60313;DHT22;46158;52.850;6.970;2024-01-25T02:39:04;15.90;63.60
60313;DHT22;46158;52.850;6.970;2024-01-25T02:41:31;16.00;63.60
60313;DHT22;46158;52.850;6.970;2024-01-25T02:43:57;16.00;63.60
60313;DHT22;46158;52.850;6.970;2024-01-25T02:46:23;16.00;63.60
60313;DHT22;46158;52.850;6.970;2024-01-25T02:48:48;16.00;63.60
60313;DHT22;46158;52.850;6.970;2024-01-25T02:51:14;16.00;63.60
60313;DHT22;46158;52.850;6.970;2024-01-25T02:53:40;16.00;63.60
60313;DHT22;46158;52.850;6.970;2024-01-25T02:56:06;16.00;63.50
60313;DHT22;46158;52.850;6.970;2024-01-25T02:58:32;16.00;63.60
60313;DHT22;46158;52.850;6.970;2024-01-25T03:00:58;16.00;63.60
60313;DHT22;46158;52.850;6.970;2024-01-25T03:03:25;16.00;63.60
60313;DHT22;46158;52.850;6.970;2024-01-25T03:05:52;16.00;63.60
60313;DHT22;46158;52.850;6.970;2024-01-25T03:08:17;16.00;63.70
60313;DHT22;46158;52.850;6.970;2024-01-25T03:10:43;15.90;63.60
60313;DHT22;46158;52.850;6.970;2024-01-25T03:13:08;15.90;63.70
60313;DHT22;46158;52.850;6.970;2024-01-25T03:15:34;15.90;63.80
60313;DHT22;46158;52.850;6.970;2024-01-25T03:18:00;15.90;63.90
60313;DHT22;46158;52.850;6.970;2024-01-25T03:20:25;15.90;63.90
60313;DHT22;46158;52.850;6.970;2024-01-25T03:22:51;15.90;64.00
60313;DHT22;46158;52.850;6.970;2024-01-25T03:25:16;15.90;64.00
60313;DHT22;46158;52.850;6.970;2024-01-25T03:27:42;15.90;64.00
60313;DHT22;46158;52.850;6.970;2024-01-25T03:30:08;15.90;64.70
60313;DHT22;46158;52.850;6.970;2024-01-25T03:32:34;15.90;64.00
60313;DHT22;46158;52.850;6.970;2024-01-25T03:35:00;16.00;64.10
60313;DHT22;46158;52.850;6.970;2024-01-25T03:37:25;16.00;64.00
60313;DHT22;46158;52.850;6.970;2024-01-25T03:39:51;16.00;64.00
60313;DHT22;46158;52.850;6.970;2024-01-25T03:42:16;16.00;64.00
60313;DHT22;46158;52.850;6.970;2024-01-25T03:44:42;16.00;64.00
60313;DHT22;46158;52.850;6.970;2024-01-25T03:47:10;16.00;64.00
60313;DHT22;46158;52.850;6.970;2024-01-25T03:49:36;15.90;64.00
60313;DHT22;46158;52.850;6.970;2024-01-25T03:52:03;16.00;64.00
60313;DHT22;46158;52.850;6.970;2024-01-25T03:54:29;15.90;64.00
60313;DHT22;46158;52.850;6.970;2024-01-25T03:56:55;15.90;64.10
60313;DHT22;46158;52.850;6.970;2024-01-25T03:59:20;15.90;64.10
60313;DHT22;46158;52.850;6.970;2024-01-25T04:01:46;15.90;64.20
60313;DHT22;46158;52.850;6.970;2024-01-25T04:04:15;15.90;64.20
60313;DHT22;46158;52.850;6.970;2024-01-25T04:06:44;15.90;64.20
60313;DHT22;46158;52.850;6.970;2024-01-25T04:09:13;15.90;64.30
60313;DHT22;46158;52.850;6.970;2024-01-25T04:11:40;15.90;64.30
60313;DHT22;46158;52.850;6.970;2024-01-25T04:14:06;15.90;64.30
60313;DHT22;46158;52.850;6.970;2024-01-25T04:16:33;15.90;64.30
60313;DHT22;46158;52.850;6.970;2024-01-25T04:18:58;15.90;64.30
60313;DHT22;46158;52.850;6.970;2024-01-25T04:21:24;15.90;64.20
60313;DHT22;46158;52.850;6.970;2024-01-25T04:23:50;15.90;64.20
60313;DHT22;46158;52.850;6.970;2024-01-25T04:26:15;16.00;64.30
60313;DHT22;46158;52.850;6.970;2024-01-25T04:28:44;16.00;64.20
60313;DHT22;46158;52.850;6.970;2024-01-25T04:31:09;16.00;64.20
60313;DHT22;46158;52.850;6.970;2024-01-25T04:33:35;16.00;64.20
60313;DHT22;46158;52.850;6.970;2024-01-25T04:36:01;16.00;64.20
60313;DHT22;46158;52.850;6.970;2024-01-25T04:38:27;16.00;64.20
60313;DHT22;46158;52.850;6.970;2024-01-25T04:40:52;15.90;64.20
60313;DHT22;46158;52.850;6.970;2024-01-25T04:43:18;15.90;64.30
60313;DHT22;46158;52.850;6.970;2024-01-25T04:45:43;15.90;64.30
60313;DHT22;46158;52.850;6.970;2024-01-25T04:48:09;15.90;64.30
60313;DHT22;46158;52.850;6.970;2024-01-25T04:50:35;15.90;64.40
60313;DHT22;46158;52.850;6.970;2024-01-25T04:53:03;15.90;64.40
60313;DHT22;46158;52.850;6.970;2024-01-25T04:55:29;15.90;64.40
60313;DHT22;46158;52.850;6.970;2024-01-25T04:57:54;15.90;64.50
60313;DHT22;46158;52.850;6.970;2024-01-25T05:00:21;15.90;64.50
60313;DHT22;46158;52.850;6.970;2024-01-25T05:02:47;15.90;64.40
60313;DHT22;46158;52.850;6.970;2024-01-25T05:05:13;15.90;64.40
60313;DHT22;46158;52.850;6.970;2024-01-25T05:07:39;15.90;64.40
60313;DHT22;46158;52.850;6.970;2024-01-25T05:10:05;15.90;64.40
60313;DHT22;46158;52.850;6.970;2024-01-25T05:12:31;15.90;64.40
60313;DHT22;46158;52.850;6.970;2024-01-25T05:14:57;15.90;64.40
60313;DHT22;46158;52.850;6.970;2024-01-25T05:17:23;15.90;64.40
60313;DHT22;46158;52.850;6.970;2024-01-25T05:19:48;16.00;64.40
60313;DHT22;46158;52.850;6.970;2024-01-25T05:22:14;15.90;64.40
60313;DHT22;46158;52.850;6.970;2024-01-25T05:24:40;15.90;64.40
60313;DHT22;46158;52.850;6.970;2024-01-25T05:27:05;15.90;64.50
60313;DHT22;46158;52.850;6.970;2024-01-25T05:29:31;15.90;64.60
60313;DHT22;46158;52.850;6.970;2024-01-25T05:31:57;15.90;64.70
60313;DHT22;46158;52.850;6.970;2024-01-25T05:34:23;15.90;64.80
60313;DHT22;46158;52.850;6.970;2024-01-25T05:36:48;15.90;64.80
60313;DHT22;46158;52.850;6.970;2024-01-25T05:39:14;15.90;64.80
60313;DHT22;46158;52.850;6.970;2024-01-25T05:41:40;15.90;64.90
60313;DHT22;46158;52.850;6.970;2024-01-25T05:44:06;15.90;64.90
60313;DHT22;46158;52.850;6.970;2024-01-25T05:46:31;15.90;65.50
60313;DHT22;46158;52.850;6.970;2024-01-25T05:48:57;15.90;64.80
60313;DHT22;46158;52.850;6.970;2024-01-25T05:51:22;15.90;64.80
60313;DHT22;46158;52.850;6.970;2024-01-25T05:53:48;15.90;64.80
60313;DHT22;46158;52.850;6.970;2024-01-25T05:56:14;15.90;64.80
60313;DHT22;46158;52.850;6.970;2024-01-25T05:58:39;15.90;64.70
60313;DHT22;46158;52.850;6.970;2024-01-25T06:01:06;15.90;64.60
60313;DHT22;46158;52.850;6.970;2024-01-25T06:03:31;15.90;64.60
60313;DHT22;46158;52.850;6.970;2024-01-25T06:05:57;15.90;64.50
60313;DHT22;46158;52.850;6.970;2024-01-25T06:08:22;15.90;64.50
60313;DHT22;46158;52.850;6.970;2024-01-25T06:10:48;15.90;64.60
60313;DHT22;46158;52.850;6.970;2024-01-25T06:13:14;15.90;64.60
60313;DHT22;46158;52.850;6.970;2024-01-25T06:15:40;15.80;64.60
60313;DHT22;46158;52.850;6.970;2024-01-25T06:18:05;15.80;64.70
60313;DHT22;46158;52.850;6.970;2024-01-25T06:20:31;15.80;64.60
60313;DHT22;46158;52.850;6.970;2024-01-25T06:22:56;15.80;64.70
60313;DHT22;46158;52.850;6.970;2024-01-25T06:25:23;15.80;64.70
60313;DHT22;46158;52.850;6.970;2024-01-25T06:27:48;15.80;64.80
60313;DHT22;46158;52.850;6.970;2024-01-25T06:30:14;15.80;65.50
60313;DHT22;46158;52.850;6.970;2024-01-25T06:32:40;15.80;64.80
60313;DHT22;46158;52.850;6.970;2024-01-25T06:35:06;15.80;64.80
60313;DHT22;46158;52.850;6.970;2024-01-25T06:37:31;15.80;64.80
60313;DHT22;46158;52.850;6.970;2024-01-25T06:39:57;15.80;64.80
60313;DHT22;46158;52.850;6.970;2024-01-25T06:42:23;15.80;64.80
60313;DHT22;46158;52.850;6.970;2024-01-25T06:44:48;15.80;64.80
60313;DHT22;46158;52.850;6.970;2024-01-25T06:47:14;15.80;64.80
60313;DHT22;46158;52.850;6.970;2024-01-25T06:49:39;15.90;64.80
60313;DHT22;46158;52.850;6.970;2024-01-25T06:52:05;15.90;64.80
60313;DHT22;46158;52.850;6.970;2024-01-25T06:54:31;15.90;64.80
60313;DHT22;46158;52.850;6.970;2024-01-25T06:56:57;15.90;64.80
60313;DHT22;46158;52.850;6.970;2024-01-25T06:59:22;15.90;64.80
60313;DHT22;46158;52.850;6.970;2024-01-25T07:01:49;15.90;64.80
60313;DHT22;46158;52.850;6.970;2024-01-25T07:04:14;15.90;64.80
60313;DHT22;46158;52.850;6.970;2024-01-25T07:06:40;15.90;64.70
60313;DHT22;46158;52.850;6.970;2024-01-25T07:09:06;15.90;64.70
60313;DHT22;46158;52.850;6.970;2024-01-25T07:11:32;16.00;64.80
60313;DHT22;46158;52.850;6.970;2024-01-25T07:13:58;16.00;64.80
60313;DHT22;46158;52.850;6.970;2024-01-25T07:16:23;16.00;64.80
60313;DHT22;46158;52.850;6.970;2024-01-25T07:18:49;16.00;64.70
60313;DHT22;46158;52.850;6.970;2024-01-25T07:21:15;16.00;64.70
60313;DHT22;46158;52.850;6.970;2024-01-25T07:23:40;16.00;64.70
60313;DHT22;46158;52.850;6.970;2024-01-25T07:26:06;16.00;64.70
60313;DHT22;46158;52.850;6.970;2024-01-25T07:28:32;16.00;64.70
60313;DHT22;46158;52.850;6.970;2024-01-25T07:30:57;16.00;64.70
60313;DHT22;46158;52.850;6.970;2024-01-25T07:33:23;16.00;64.70
60313;DHT22;46158;52.850;6.970;2024-01-25T07:35:48;16.00;64.70
60313;DHT22;46158;52.850;6.970;2024-01-25T07:38:14;16.00;64.70
60313;DHT22;46158;52.850;6.970;2024-01-25T07:40:41;16.10;64.70
60313;DHT22;46158;52.850;6.970;2024-01-25T07:43:06;16.00;64.60
60313;DHT22;46158;52.850;6.970;2024-01-25T07:45:32;16.10;64.80
60313;DHT22;46158;52.850;6.970;2024-01-25T07:47:58;16.10;64.70
60313;DHT22;46158;52.850;6.970;2024-01-25T07:50:24;16.10;64.70
60313;DHT22;46158;52.850;6.970;2024-01-25T07:52:50;16.10;64.70
60313;DHT22;46158;52.850;6.970;2024-01-25T07:55:16;16.10;64.70
60313;DHT22;46158;52.850;6.970;2024-01-25T07:57:41;16.10;64.80
60313;DHT22;46158;52.850;6.970;2024-01-25T08:00:07;16.10;64.80
60313;DHT22;46158;52.850;6.970;2024-01-25T08:02:35;16.10;64.70
60313;DHT22;46158;52.850;6.970;2024-01-25T08:05:01;16.10;64.70
60313;DHT22;46158;52.850;6.970;2024-01-25T08:07:28;16.10;64.70
60313;DHT22;46158;52.850;6.970;2024-01-25T08:09:53;16.10;64.70
60313;DHT22;46158;52.850;6.970;2024-01-25T08:12:23;16.10;64.70
60313;DHT22;46158;52.850;6.970;2024-01-25T08:14:49;16.10;64.70
60313;DHT22;46158;52.850;6.970;2024-01-25T08:17:14;16.10;64.80
60313;DHT22;46158;52.850;6.970;2024-01-25T08:19:40;16.10;64.80
60313;DHT22;46158;52.850;6.970;2024-01-25T08:22:06;16.10;64.80
60313;DHT22;46158;52.850;6.970;2024-01-25T08:24:32;16.10;64.90
60313;DHT22;46158;52.850;6.970;2024-01-25T08:26:57;16.10;64.90
60313;DHT22;46158;52.850;6.970;2024-01-25T08:29:23;16.00;64.80
60313;DHT22;46158;52.850;6.970;2024-01-25T08:31:48;16.00;64.90
60313;DHT22;46158;52.850;6.970;2024-01-25T08:34:14;16.10;65.00
60313;DHT22;46158;52.850;6.970;2024-01-25T08:36:40;16.00;65.00
60313;DHT22;46158;52.850;6.970;2024-01-25T08:39:05;16.00;65.00
60313;DHT22;46158;52.850;6.970;2024-01-25T08:41:31;16.00;65.10
60313;DHT22;46158;52.850;6.970;2024-01-25T08:43:57;16.00;65.10
60313;DHT22;46158;52.850;6.970;2024-01-25T08:46:22;16.00;65.10
60313;DHT22;46158;52.850;6.970;2024-01-25T08:48:48;16.00;65.10
60313;DHT22;46158;52.850;6.970;2024-01-25T08:51:14;16.00;65.10
60313;DHT22;46158;52.850;6.970;2024-01-25T08:53:39;16.00;65.10
60313;DHT22;46158;52.850;6.970;2024-01-25T08:56:05;16.00;65.20
60313;DHT22;46158;52.850;6.970;2024-01-25T08:58:31;16.00;65.10
60313;DHT22;46158;52.850;6.970;2024-01-25T09:00:56;16.00;65.10
60313;DHT22;46158;52.850;6.970;2024-01-25T09:03:22;16.00;65.10
60313;DHT22;46158;52.850;6.970;2024-01-25T09:05:48;16.00;65.20
60313;DHT22;46158;52.850;6.970;2024-01-25T09:08:14;16.10;65.20
60313;DHT22;46158;52.850;6.970;2024-01-25T09:10:42;16.10;65.10
60313;DHT22;46158;52.850;6.970;2024-01-25T09:13:08;16.10;65.10
60313;DHT22;46158;52.850;6.970;2024-01-25T09:15:34;16.00;65.10
60313;DHT22;46158;52.850;6.970;2024-01-25T09:18:00;16.10;65.20
60313;DHT22;46158;52.850;6.970;2024-01-25T09:20:25;16.00;65.10
60313;DHT22;46158;52.850;6.970;2024-01-25T09:22:51;16.00;65.10
60313;DHT22;46158;52.850;6.970;2024-01-25T09:25:19;16.00;65.20
60313;DHT22;46158;52.850;6.970;2024-01-25T09:27:45;16.00;65.30
60313;DHT22;46158;52.850;6.970;2024-01-25T09:30:11;16.00;65.30
60313;DHT22;46158;52.850;6.970;2024-01-25T09:32:37;16.00;65.40
60313;DHT22;46158;52.850;6.970;2024-01-25T09:35:02;16.00;65.40
60313;DHT22;46158;52.850;6.970;2024-01-25T09:37:28;16.00;65.40
60313;DHT22;46158;52.850;6.970;2024-01-25T09:39:53;16.00;65.40
60313;DHT22;46158;52.850;6.970;2024-01-25T09:42:19;16.00;65.50
60313;DHT22;46158;52.850;6.970;2024-01-25T09:44:45;16.00;65.50
60313;DHT22;46158;52.850;6.970;2024-01-25T09:47:11;16.00;65.50
60313;DHT22;46158;52.850;6.970;2024-01-25T09:49:37;16.00;65.50
60313;DHT22;46158;52.850;6.970;2024-01-25T09:52:03;16.00;65.50
60313;DHT22;46158;52.850;6.970;2024-01-25T09:54:34;16.00;65.40
60313;DHT22;46158;52.850;6.970;2024-01-25T09:57:06;16.00;65.40
60313;DHT22;46158;52.850;6.970;2024-01-25T09:59:33;16.00;65.40
60313;DHT22;46158;52.850;6.970;2024-01-25T10:02:01;16.00;65.40
60313;DHT22;46158;52.850;6.970;2024-01-25T10:04:27;16.00;65.30
60313;DHT22;46158;52.850;6.970;2024-01-25T10:06:55;16.00;65.30
60313;DHT22;46158;52.850;6.970;2024-01-25T10:09:22;16.10;65.40
60313;DHT22;46158;52.850;6.970;2024-01-25T10:11:48;16.00;65.30
60313;DHT22;46158;52.850;6.970;2024-01-25T10:14:14;16.00;65.40
60313;DHT22;46158;52.850;6.970;2024-01-25T10:16:39;16.00;65.40
60313;DHT22;46158;52.850;6.970;2024-01-25T10:19:08;16.00;65.50
60313;DHT22;46158;52.850;6.970;2024-01-25T10:21:35;16.00;65.50
60313;DHT22;46158;52.850;6.970;2024-01-25T10:24:01;16.00;65.50
60313;DHT22;46158;52.850;6.970;2024-01-25T10:26:28;16.00;65.60
60313;DHT22;46158;52.850;6.970;2024-01-25T10:28:54;16.00;65.60
60313;DHT22;46158;52.850;6.970;2024-01-25T10:31:23;15.90;65.50
60313;DHT22;46158;52.850;6.970;2024-01-25T10:33:52;16.00;65.60
60313;DHT22;46158;52.850;6.970;2024-01-25T10:36:20;16.00;65.60
60313;DHT22;46158;52.850;6.970;2024-01-25T10:38:48;16.00;65.60
60313;DHT22;46158;52.850;6.970;2024-01-25T10:41:14;16.00;65.60
60313;DHT22;46158;52.850;6.970;2024-01-25T10:43:40;16.00;66.30
60313;DHT22;46158;52.850;6.970;2024-01-25T10:46:07;16.00;65.50
60313;DHT22;46158;52.850;6.970;2024-01-25T10:48:34;16.00;65.50
60313;DHT22;46158;52.850;6.970;2024-01-25T10:51:01;16.00;65.50
60313;DHT22;46158;52.850;6.970;2024-01-25T10:53:32;16.00;65.50
60313;DHT22;46158;52.850;6.970;2024-01-25T10:55:59;16.00;65.50
60313;DHT22;46158;52.850;6.970;2024-01-25T10:58:32;16.00;65.50
60313;DHT22;46158;52.850;6.970;2024-01-25T11:01:01;16.00;65.60
60313;DHT22;46158;52.850;6.970;2024-01-25T11:03:29;16.00;65.60
60313;DHT22;46158;52.850;6.970;2024-01-25T11:06:14;15.90;65.60
60313;DHT22;46158;52.850;6.970;2024-01-25T11:08:40;15.90;65.70
60313;DHT22;46158;52.850;6.970;2024-01-25T11:11:10;15.90;65.70
60313;DHT22;46158;52.850;6.970;2024-01-25T11:13:44;16.00;65.80
60313;DHT22;46158;52.850;6.970;2024-01-25T11:16:29;16.00;65.80
60313;DHT22;46158;52.850;6.970;2024-01-25T11:18:57;15.90;65.70
60313;DHT22;46158;52.850;6.970;2024-01-25T11:21:41;15.90;65.70
60313;DHT22;46158;52.850;6.970;2024-01-25T11:26:43;15.90;65.60
60313;DHT22;46158;52.850;6.970;2024-01-25T11:29:10;15.90;65.60
60313;DHT22;46158;52.850;6.970;2024-01-25T11:31:40;16.00;65.70
60313;DHT22;46158;52.850;6.970;2024-01-25T11:34:05;16.00;65.60
60313;DHT22;46158;52.850;6.970;2024-01-25T11:36:31;16.00;65.60
60313;DHT22;46158;52.850;6.970;2024-01-25T11:38:57;16.00;65.50
60313;DHT22;46158;52.850;6.970;2024-01-25T11:41:23;16.00;65.50
60313;DHT22;46158;52.850;6.970;2024-01-25T11:43:49;16.00;65.50
60313;DHT22;46158;52.850;6.970;2024-01-25T11:46:15;16.00;65.50
60313;DHT22;46158;52.850;6.970;2024-01-25T11:48:41;16.00;65.60
60313;DHT22;46158;52.850;6.970;2024-01-25T11:51:09;16.00;65.60
60313;DHT22;46158;52.850;6.970;2024-01-25T11:53:35;16.00;65.70
60313;DHT22;46158;52.850;6.970;2024-01-25T11:56:01;16.00;65.80
60313;DHT22;46158;52.850;6.970;2024-01-25T11:58:27;16.00;65.80
60313;DHT22;46158;52.850;6.970;2024-01-25T12:00:53;16.00;65.80
60313;DHT22;46158;52.850;6.970;2024-01-25T12:03:20;16.00;65.80
60313;DHT22;46158;52.850;6.970;2024-01-25T12:05:49;16.00;65.80
60313;DHT22;46158;52.850;6.970;2024-01-25T12:08:16;16.00;65.80
60313;DHT22;46158;52.850;6.970;2024-01-25T12:10:42;16.00;65.80
60313;DHT22;46158;52.850;6.970;2024-01-25T12:13:08;16.00;65.80
60313;DHT22;46158;52.850;6.970;2024-01-25T12:15:35;16.00;65.70
60313;DHT22;46158;52.850;6.970;2024-01-25T12:18:00;16.00;65.70
60313;DHT22;46158;52.850;6.970;2024-01-25T12:20:27;16.00;65.70
60313;DHT22;46158;52.850;6.970;2024-01-25T12:22:53;16.00;65.70
60313;DHT22;46158;52.850;6.970;2024-01-25T12:25:19;16.00;65.70
60313;DHT22;46158;52.850;6.970;2024-01-25T12:27:44;16.00;65.80
60313;DHT22;46158;52.850;6.970;2024-01-25T12:30:12;16.00;65.80
60313;DHT22;46158;52.850;6.970;2024-01-25T12:32:38;15.90;65.80
60313;DHT22;46158;52.850;6.970;2024-01-25T12:35:04;16.00;65.90
60313;DHT22;46158;52.850;6.970;2024-01-25T12:37:32;15.90;65.90
60313;DHT22;46158;52.850;6.970;2024-01-25T12:39:58;15.90;65.90
60313;DHT22;46158;52.850;6.970;2024-01-25T12:42:23;15.90;65.90
60313;DHT22;46158;52.850;6.970;2024-01-25T12:44:52;15.90;65.90
60313;DHT22;46158;52.850;6.970;2024-01-25T12:47:18;15.90;65.90
60313;DHT22;46158;52.850;6.970;2024-01-25T12:49:44;15.90;65.90
60313;DHT22;46158;52.850;6.970;2024-01-25T12:52:11;15.90;65.90
60313;DHT22;46158;52.850;6.970;2024-01-25T12:54:37;15.90;65.80
60313;DHT22;46158;52.850;6.970;2024-01-25T12:57:04;15.90;66.50
60313;DHT22;46158;52.850;6.970;2024-01-25T12:59:31;15.90;65.80
60313;DHT22;46158;52.850;6.970;2024-01-25T13:01:57;15.90;65.80
60313;DHT22;46158;52.850;6.970;2024-01-25T13:04:23;15.90;65.90
60313;DHT22;46158;52.850;6.970;2024-01-25T13:06:51;15.90;65.90
60313;DHT22;46158;52.850;6.970;2024-01-25T13:09:16;15.90;65.90
60313;DHT22;46158;52.850;6.970;2024-01-25T13:11:42;15.90;66.00
60313;DHT22;46158;52.850;6.970;2024-01-25T13:14:07;15.90;66.00
60313;DHT22;46158;52.850;6.970;2024-01-25T13:16:33;15.90;66.10
60313;DHT22;46158;52.850;6.970;2024-01-25T13:18:59;15.90;66.10
60313;DHT22;46158;52.850;6.970;2024-01-25T13:21:24;15.80;66.00
60313;DHT22;46158;52.850;6.970;2024-01-25T13:23:50;15.80;66.00
60313;DHT22;46158;52.850;6.970;2024-01-25T13:26:16;15.80;66.00
60313;DHT22;46158;52.850;6.970;2024-01-25T13:28:41;15.90;66.00
60313;DHT22;46158;52.850;6.970;2024-01-25T13:31:07;15.90;66.00
60313;DHT22;46158;52.850;6.970;2024-01-25T13:33:32;15.90;66.10
60313;DHT22;46158;52.850;6.970;2024-01-25T13:35:58;15.90;66.00
60313;DHT22;46158;52.850;6.970;2024-01-25T13:38:23;15.80;66.00
60313;DHT22;46158;52.850;6.970;2024-01-25T13:40:50;15.80;66.00
60313;DHT22;46158;52.850;6.970;2024-01-25T13:43:16;15.80;66.00
60313;DHT22;46158;52.850;6.970;2024-01-25T13:45:42;15.80;66.10
60313;DHT22;46158;52.850;6.970;2024-01-25T13:48:07;15.80;66.10
60313;DHT22;46158;52.850;6.970;2024-01-25T13:50:33;15.80;66.10
60313;DHT22;46158;52.850;6.970;2024-01-25T13:52:59;15.80;66.20
60313;DHT22;46158;52.850;6.970;2024-01-25T13:55:24;15.80;66.20
60313;DHT22;46158;52.850;6.970;2024-01-25T13:57:50;15.80;66.20
60313;DHT22;46158;52.850;6.970;2024-01-25T14:00:16;15.80;66.20
60313;DHT22;46158;52.850;6.970;2024-01-25T14:02:41;15.80;66.10
60313;DHT22;46158;52.850;6.970;2024-01-25T14:05:11;15.80;66.10
60313;DHT22;46158;52.850;6.970;2024-01-25T14:07:37;15.80;66.10
60313;DHT22;46158;52.850;6.970;2024-01-25T14:10:02;15.80;66.10
60313;DHT22;46158;52.850;6.970;2024-01-25T14:12:28;15.80;66.10
60313;DHT22;46158;52.850;6.970;2024-01-25T14:14:54;15.80;66.10
60313;DHT22;46158;52.850;6.970;2024-01-25T14:17:19;15.70;66.10
60313;DHT22;46158;52.850;6.970;2024-01-25T14:19:47;15.70;66.10
60313;DHT22;46158;52.850;6.970;2024-01-25T14:22:12;15.70;66.20
60313;DHT22;46158;52.850;6.970;2024-01-25T14:24:38;15.70;66.20
60313;DHT22;46158;52.850;6.970;2024-01-25T14:27:04;15.70;66.20
60313;DHT22;46158;52.850;6.970;2024-01-25T14:29:29;15.70;66.30
60313;DHT22;46158;52.850;6.970;2024-01-25T14:31:58;15.70;66.30
60313;DHT22;46158;52.850;6.970;2024-01-25T14:34:23;15.70;66.30
60313;DHT22;46158;52.850;6.970;2024-01-25T14:36:49;15.80;66.30
60313;DHT22;46158;52.850;6.970;2024-01-25T14:39:16;15.70;66.30
60313;DHT22;46158;52.850;6.970;2024-01-25T14:41:45;15.70;66.20
60313;DHT22;46158;52.850;6.970;2024-01-25T14:44:11;15.70;66.30
60313;DHT22;46158;52.850;6.970;2024-01-25T14:46:36;15.80;66.30
60313;DHT22;46158;52.850;6.970;2024-01-25T14:49:03;15.70;66.20
60313;DHT22;46158;52.850;6.970;2024-01-25T14:51:29;15.80;66.20
60313;DHT22;46158;52.850;6.970;2024-01-25T14:53:54;15.70;66.20
60313;DHT22;46158;52.850;6.970;2024-01-25T14:56:20;15.80;66.30
60313;DHT22;46158;52.850;6.970;2024-01-25T14:58:46;15.70;66.30
60313;DHT22;46158;52.850;6.970;2024-01-25T15:01:15;15.70;66.30
60313;DHT22;46158;52.850;6.970;2024-01-25T15:03:47;15.70;66.30
60313;DHT22;46158;52.850;6.970;2024-01-25T15:06:13;15.70;66.40
60313;DHT22;46158;52.850;6.970;2024-01-25T15:08:39;15.70;66.40
60313;DHT22;46158;52.850;6.970;2024-01-25T15:11:06;15.70;66.40
60313;DHT22;46158;52.850;6.970;2024-01-25T15:13:31;15.70;67.10
60313;DHT22;46158;52.850;6.970;2024-01-25T15:15:57;15.70;66.40
60313;DHT22;46158;52.850;6.970;2024-01-25T15:18:23;15.70;66.40
60313;DHT22;46158;52.850;6.970;2024-01-25T15:20:49;15.70;66.30
60313;DHT22;46158;52.850;6.970;2024-01-25T15:23:16;15.80;66.50
60313;DHT22;46158;52.850;6.970;2024-01-25T15:25:42;15.80;66.50